Time;durP1;ratioP1;P1;durP2;ratioP2;P2;SDS_P1;SDS_P2;PMS_P1;PMS_P2;Temp;Humidity;BMP_temperature;BMP_pressure;BME280_temperature;BME280_humidity;BME280_pressure;Samples;Min_cycle;Max_cycle;Signal;HPM_P1;HPM_P2
2022/11/30 00:01:34;;;;;;;4.18;3.10;;;;;;;16.23;60.91;102384.31;6277963;22;19992;-83
2022/11/30 00:04:00;;;;;;;7.30;3.08;;;;;;;16.22;61.01;102385.16;6278868;22;20022;-84
2022/11/30 00:06:26;;;;;;;6.05;3.00;;;;;;;16.24;60.73;102388.66;6305191;22;19996;-83
2022/11/30 00:09:31;;;;;;;4.70;2.92;;;;;;;16.23;60.71;102391.22;6279237;22;19998;-84
2022/11/30 00:11:56;;;;;;;;;;;;;;;16.24;60.74;102391.28;6305603;22;20018;-85
2022/11/30 00:14:23;;;;;;;4.20;2.70;;;;;;;16.22;60.90;102392.06;6277479;22;19911;-85
2022/11/30 00:16:53;;;;;;;6.60;3.03;;;;;;;16.23;60.77;102394.69;6279110;22;19995;-84
2022/11/30 00:19:26;;;;;;;6.53;3.10;;;;;;;16.21;60.91;102387.72;6254659;22;20012;-84
2022/11/30 00:21:52;;;;;;;4.20;2.80;;;;;;;16.23;60.93;102391.22;6304763;22;19992;-83
2022/11/30 00:24:19;;;;;;;4.97;2.85;;;;;;;16.23;60.65;102386.03;6299738;22;20067;-83
2022/11/30 00:26:46;;;;;;;3.85;2.65;;;;;;;16.21;60.75;102388.59;6265618;22;20019;-83
2022/11/30 00:29:13;;;;;;;5.75;3.00;;;;;;;16.20;61.04;102385.94;6305609;22;20082;-83
2022/11/30 00:31:46;;;;;;;3.25;2.40;;;;;;;16.20;60.95;102383.34;6305364;22;19995;-85
2022/11/30 00:34:22;;;;;;;3.80;2.63;;;;;;;16.19;60.84;102387.69;6303849;22;20007;-84
2022/11/30 00:36:48;;;;;;;5.32;2.80;;;;;;;16.19;60.78;102385.06;6278906;22;19988;-83
2022/11/30 00:39:21;;;;;;;5.20;2.90;;;;;;;16.20;60.81;102392.03;6253851;22;20032;-83
2022/11/30 00:41:55;;;;;;;4.78;2.83;;;;;;;16.21;60.91;102391.19;6304524;22;19984;-82
2022/11/30 00:48:08;;;;;;;3.08;2.30;;;;;;;16.21;60.95;102387.72;6305270;22;20007;-85
2022/11/30 00:50:34;;;;;;;3.78;2.20;;;;;;;16.19;60.78;102387.69;6304781;22;20062;-84
2022/11/30 00:53:01;;;;;;;4.45;2.60;;;;;;;16.21;60.88;102392.91;6279637;22;19995;-83
2022/11/30 01:00:55;;;;;;;4.85;2.50;;;;;;;16.17;60.84;102381.56;6302040;22;20034;-82
2022/11/30 01:03:22;;;;;;;3.33;2.28;;;;;;;16.20;60.88;102383.34;6300396;22;20008;-82
2022/11/30 01:05:54;;;;;;;3.80;2.50;;;;;;;16.18;60.97;102372.09;6291763;22;19999;-83
2022/11/30 01:08:27;;;;;;;5.18;2.70;;;;;;;16.19;61.09;102372.09;6285870;22;20026;-82
2022/11/30 01:14:30;;;;;;;4.35;2.40;;;;;;;16.18;61.05;102385.94;6287659;22;20014;-83
2022/11/30 01:16:56;;;;;;;3.53;2.47;;;;;;;16.17;60.87;102383.31;6304408;22;19996;-83
2022/11/30 01:19:23;;;;;;;4.07;2.33;;;;;;;16.17;61.20;102389.38;6251196;22;19991;-82
2022/11/30 01:21:53;;;;;;;4.82;2.38;;;;;;;16.18;61.03;102387.66;6241952;22;20015;-82
2022/11/30 01:24:25;;;;;;;5.70;2.20;;;;;;;16.17;60.68;102391.09;6256681;22;20007;-82
2022/11/30 01:26:51;;;;;;;3.45;2.28;;;;;;;16.17;60.82;102396.28;6227902;22;20011;-82
2022/11/30 01:29:18;;;;;;;3.10;2.35;;;;;;;16.20;60.83;102393.75;6271246;22;20030;-82
2022/11/30 01:31:44;;;;;;;4.38;2.22;;;;;;;16.17;60.89;102391.97;6236459;22;20011;-82
2022/11/30 01:34:11;;;;;;;3.80;2.30;;;;;;;16.17;61.03;102388.50;6273997;22;20013;-82
2022/11/30 01:36:37;;;;;;;3.85;2.38;;;;;;;16.17;60.90;102391.09;6274421;22;19995;-81
2022/11/30 01:39:08;;;;;;;3.88;2.50;;;;;;;16.17;60.66;102391.09;6258410;22;20011;-81
2022/11/30 01:41:35;;;;;;;3.22;2.13;;;;;;;16.16;60.92;102392.81;6279078;22;20034;-85
2022/11/30 01:44:25;;;;;;;3.65;2.33;;;;;;;16.18;60.88;102393.72;6251497;22;19995;-84
2022/11/30 01:47:04;;;;;;;3.53;2.45;;;;;;;16.15;60.94;102396.25;6307409;22;19984;-84
2022/11/30 01:49:37;;;;;;;3.78;2.30;;;;;;;16.18;61.05;102395.47;6307168;22;20059;-85
2022/11/30 01:52:16;;;;;;;3.95;2.47;;;;;;;16.17;61.02;102396.28;6254756;22;20047;-84
2022/11/30 01:54:53;;;;;;;3.95;2.42;;;;;;;16.16;61.20;102395.41;6277024;22;20006;-84
2022/11/30 01:57:37;;;;;;;4.20;2.40;;;;;;;16.16;60.83;102389.34;6277267;22;19991;-87
2022/11/30 02:00:07;;;;;;;3.85;2.28;;;;;;;16.15;60.83;102396.25;6255145;22;20574;-85
2022/11/30 02:03:04;;;;;;;4.57;2.50;;;;;;;16.16;60.91;102399.75;6279967;22;19996;-84
2022/11/30 02:05:33;;;;;;;3.97;2.40;;;;;;;16.14;60.95;102391.91;6279055;22;20004;-87
2022/11/30 02:08:01;;;;;;;4.43;2.40;;;;;;;16.14;61.09;102393.63;6280357;22;20027;-83
2022/11/30 02:10:36;;;;;;;4.53;2.40;;;;;;;16.15;61.01;102397.97;6305887;22;20076;-83
2022/11/30 02:13:45;;;;;;;3.50;2.30;;;;;;;16.15;60.85;102401.44;6280681;22;20043;-84
2022/11/30 02:16:46;;;;;;;3.88;2.50;;;;;;;16.15;60.60;102397.97;6276085;22;20003;-84
2022/11/30 02:19:56;;;;;;;4.57;2.35;;;;;;;16.14;60.88;102402.28;6277750;22;19995;-84
2022/11/30 02:23:18;;;;;;;6.28;2.35;;;;;;;16.15;61.01;102409.22;6306097;22;20006;-84
2022/11/30 02:26:18;;;;;;;3.97;2.47;;;;;;;16.14;60.74;102402.28;6184160;23;20069;-84
2022/11/30 02:31:34;;;;;;;3.40;2.40;;;;;;;16.11;60.79;102402.22;6290085;22;20023;-84
2022/11/30 02:34:05;;;;;;;3.15;2.40;;;;;;;16.12;61.06;102403.97;6302391;22;20058;-83
2022/11/30 02:36:31;;;;;;;3.75;2.50;;;;;;;16.13;60.94;102402.25;6298849;22;19995;-84
2022/11/30 02:38:58;;;;;;;3.42;2.33;;;;;;;16.13;60.84;102404.84;6306392;22;20034;-84
2022/11/30 02:41:24;;;;;;;3.65;2.10;;;;;;;16.11;60.90;102410.00;6305787;22;19991;-85
2022/11/30 02:43:53;;;;;;;3.47;2.42;;;;;;;16.12;60.96;102416.09;6254731;22;20002;-84
2022/11/30 02:46:30;;;;;;;3.22;2.30;;;;;;;16.12;60.73;102405.72;6305803;22;19995;-83
2022/11/30 02:49:26;;;;;;;3.33;2.30;;;;;;;16.11;60.64;102411.72;6297493;22;19996;-84
2022/11/30 02:51:54;;;;;;;2.90;2.10;;;;;;;16.12;60.81;102419.56;6259462;22;20051;-84
2022/11/30 02:56:56;;;;;;;2.50;1.98;;;;;;;16.13;60.84;102412.66;6263777;22;20038;-83
2022/11/30 03:14:26;;;;;;;3.50;2.30;;;;;;;16.09;60.57;102419.50;6279696;22;20010;-83
2022/11/30 03:16:52;;;;;;;5.38;2.35;;;;;;;16.10;60.83;102416.06;6305055;22;20018;-83
2022/11/30 03:19:18;;;;;;;3.20;2.45;;;;;;;16.10;60.81;102420.38;6278669;22;20015;-82
2022/11/30 03:21:44;;;;;;;3.38;2.60;;;;;;;16.09;60.83;102419.50;6285290;22;20054;-82
2022/11/30 03:24:10;;;;;;;3.15;1.80;;;;;;;16.09;60.82;102414.31;6311054;22;20001;-82
2022/11/30 03:26:39;;;;;;;2.95;2.17;;;;;;;16.09;60.87;102411.72;6311851;22;20004;-81
2022/11/30 03:29:05;;;;;;;3.28;2.40;;;;;;;16.10;60.87;102417.78;6255078;22;20000;-81
2022/11/30 03:31:31;;;;;;;2.97;2.22;;;;;;;16.10;61.02;102417.78;6280231;22;20044;-83
2022/11/30 03:34:02;;;;;;;2.42;2.03;;;;;;;16.10;60.79;102423.84;6305518;22;19988;-81
2022/11/30 03:44:13;;;;;;;2.47;2.10;;;;;;;16.08;60.60;102422.06;6289118;22;20008;-81
2022/11/30 03:46:39;;;;;;;3.10;2.10;;;;;;;16.08;60.99;102424.66;6303886;22;19998;-84
2022/11/30 03:49:19;;;;;;;3.08;2.20;;;;;;;16.09;60.80;102422.09;6126788;22;2772087;-81
2022/11/30 03:54:35;;;;;;;3.00;2.15;;;;;;;16.08;60.82;102428.13;6276087;22;20024;-84
2022/11/30 03:59:37;;;;;;;3.28;2.13;;;;;;;16.10;60.98;102425.56;6316334;22;20019;-83
2022/11/30 04:02:47;;;;;;;4.03;2.35;;;;;;;16.09;60.99;102426.41;6331905;22;19987;-84
2022/11/30 04:08:37;;;;;;;3.65;2.45;;;;;;;16.06;60.99;102422.03;6320671;22;20033;-82
2022/11/30 04:11:11;;;;;;;3.08;2.20;;;;;;;16.06;60.86;102428.94;6309253;22;20002;-82
2022/11/30 04:13:38;;;;;;;2.78;2.10;;;;;;;16.07;60.90;102433.28;6285911;22;19995;-82
2022/11/30 04:16:07;;;;;;;3.63;1.95;;;;;;;16.08;60.91;102435.06;6310180;22;20003;-82
2022/11/30 04:18:35;;;;;;;2.95;2.05;;;;;;;16.09;60.97;102436.78;6308953;22;20017;-82
2022/11/30 04:21:05;;;;;;;2.50;1.92;;;;;;;16.05;60.90;102430.66;6309333;22;19987;-85
2022/11/30 04:23:34;;;;;;;3.20;1.90;;;;;;;16.07;60.79;102441.06;6331423;22;20011;-82
2022/11/30 04:26:10;;;;;;;2.92;2.10;;;;;;;16.04;61.02;102440.16;6336735;22;19992;-85
2022/11/30 04:28:35;;;;;;;3.75;2.45;;;;;;;16.07;60.76;102446.25;6285349;22;19994;-84
2022/11/30 04:31:08;;;;;;;3.13;2.20;;;;;;;16.05;60.62;102441.06;6309887;22;19998;-81
2022/11/30 04:33:34;;;;;;;4.20;2.43;;;;;;;16.04;60.85;102440.16;6309307;22;20070;-81
2022/11/30 04:36:02;;;;;;;3.65;2.05;;;;;;;16.06;60.90;102444.53;6307378;22;20007;-81
2022/11/30 04:38:28;;;;;;;4.05;2.28;;;;;;;16.05;60.46;102446.25;6308908;22;19991;-81
2022/11/30 04:40:56;;;;;;;2.47;1.90;;;;;;;16.04;61.08;102444.47;6310189;22;19995;-82
2022/11/30 04:43:22;;;;;;;2.60;1.90;;;;;;;16.04;60.77;102445.34;6246714;22;20003;-84
2022/11/30 04:45:51;;;;;;;3.17;2.20;;;;;;;16.04;61.05;102449.69;6309300;22;20002;-83
2022/11/30 04:48:20;;;;;;;3.58;2.28;;;;;;;16.05;61.00;102446.25;6310118;22;20370;-82
2022/11/30 04:50:46;;;;;;;3.70;2.13;;;;;;;16.03;60.86;102451.41;6336483;22;20003;-82
2022/11/30 04:53:13;;;;;;;2.28;1.85;;;;;;;16.06;60.75;102452.31;6310203;22;19983;-83
2022/11/30 04:55:39;;;;;;;2.95;2.10;;;;;;;16.04;60.97;102447.94;6294826;22;20017;-81
2022/11/30 04:58:21;;;;;;;2.72;2.28;;;;;;;16.04;60.88;102444.47;6278394;22;19988;-82
2022/11/30 05:00:48;;;;;;;3.70;2.22;;;;;;;16.04;60.81;102458.34;6279166;22;20030;-81
2022/11/30 05:03:14;;;;;;;3.88;2.40;;;;;;;16.03;60.68;102453.13;6305389;22;20027;-82
2022/11/30 05:05:46;;;;;;;2.92;2.00;;;;;;;16.02;60.89;102452.22;6304028;22;20003;-83
2022/11/30 05:08:12;;;;;;;2.63;1.90;;;;;;;16.04;60.87;102454.88;6279143;22;19988;-82
2022/11/30 05:10:38;;;;;;;2.28;1.70;;;;;;;16.04;60.81;102460.94;6253367;22;20012;-82
2022/11/30 05:13:43;;;;;;;2.75;1.83;;;;;;;16.06;60.77;102466.16;6278572;22;20015;-82
2022/11/30 05:16:11;;;;;;;2.78;1.85;;;;;;;16.06;61.03;102462.69;6242133;23;19997;-82
2022/11/30 05:18:40;;;;;;;2.80;1.95;;;;;;;16.09;60.58;102473.16;6217170;23;20024;-82
2022/11/30 05:21:07;;;;;;;3.22;2.20;;;;;;;16.06;61.07;102466.16;6232498;22;20015;-81
2022/11/30 05:23:37;;;;;;;2.35;1.95;;;;;;;16.07;61.01;102469.63;6306626;22;20059;-81
2022/11/30 05:26:04;;;;;;;2.83;1.85;;;;;;;16.09;61.21;102474.06;6230791;23;20008;-82
2022/11/30 05:28:30;;;;;;;2.72;2.00;;;;;;;16.06;61.13;102466.16;6244581;23;19993;-82
2022/11/30 05:31:02;;;;;;;2.63;1.92;;;;;;;16.08;61.00;102474.88;6219815;23;20060;-81
2022/11/30 05:33:29;;;;;;;2.50;1.70;;;;;;;16.09;61.12;102465.34;6245001;23;20011;-82
2022/11/30 05:35:55;;;;;;;2.40;1.70;;;;;;;16.09;61.21;102473.16;6219359;23;20072;-83
2022/11/30 05:38:23;;;;;;;3.03;1.77;;;;;;;16.10;61.32;102472.31;6243242;23;20031;-84
2022/11/30 05:40:49;;;;;;;1.83;1.38;;;;;;;16.10;61.21;102474.91;6187536;23;20004;-82
2022/11/30 05:43:15;;;;;;;1.83;1.50;;;;;;;16.09;61.54;102476.66;6209310;23;20029;-82
2022/11/30 05:45:43;;;;;;;2.20;1.63;;;;;;;16.10;61.11;102474.91;6240059;23;19989;-84
2022/11/30 05:48:15;;;;;;;1.80;1.60;;;;;;;16.10;61.10;102475.78;6242745;22;19992;-86
2022/11/30 05:50:42;;;;;;;2.13;1.55;;;;;;;16.12;61.41;102479.31;6243934;23;20001;-85
2022/11/30 05:53:08;;;;;;;3.17;1.65;;;;;;;16.11;61.34;102481.84;6217567;23;20000;-84
2022/11/30 05:55:35;;;;;;;2.97;1.75;;;;;;;16.11;61.23;102477.53;6218519;23;20008;-85
2022/11/30 05:58:01;;;;;;;3.25;1.80;;;;;;;16.11;61.31;102477.53;6237844;23;20005;-82
2022/11/30 06:00:28;;;;;;;2.65;1.73;;;;;;;16.10;61.46;102480.13;6212437;23;20047;-83
2022/11/30 06:03:03;;;;;;;4.78;2.38;;;;;;;16.12;61.13;102491.41;6258367;22;19991;-82
2022/11/30 06:05:33;;;;;;;5.13;2.40;;;;;;;16.10;61.38;102493.97;6297873;22;20047;-80
2022/11/30 06:08:00;;;;;;;4.85;2.67;;;;;;;16.11;61.51;102493.13;6261235;22;20378;-82
2022/11/30 06:10:26;;;;;;;4.55;2.47;;;;;;;16.11;61.13;102500.91;6285184;22;20004;-80
2022/11/30 06:12:51;;;;;;;6.55;2.75;;;;;;;16.11;61.50;102495.72;6260187;22;20063;-81
2022/11/30 06:15:17;;;;;;;7.32;2.90;;;;;;;16.11;61.59;102497.44;6285216;22;20011;-81
2022/11/30 06:17:45;;;;;;;4.97;3.13;;;;;;;16.12;61.54;102494.88;6263328;22;20067;-82
2022/11/30 06:20:11;;;;;;;6.82;2.72;;;;;;;16.14;61.51;102494.94;6290749;22;20023;-80
2022/11/30 06:22:36;;;;;;;6.65;2.80;;;;;;;16.12;61.53;102487.09;6285444;22;20349;-81
2022/11/30 06:25:03;;;;;;;9.40;3.38;;;;;;;16.13;61.48;102496.63;6256692;22;20008;-81
2022/11/30 06:27:30;;;;;;;7.63;2.80;;;;;;;16.14;61.61;102494.94;6229327;22;20034;-80
2022/11/30 06:29:56;;;;;;;8.63;3.35;;;;;;;16.15;61.77;102484.53;6277974;22;20014;-80
2022/11/30 06:32:21;;;;;;;5.35;2.95;;;;;;;16.15;61.83;102481.94;6278011;22;20007;-80
2022/11/30 06:34:46;;;;;;;4.72;2.67;;;;;;;16.16;61.92;102488.06;6279028;22;20013;-79
2022/11/30 06:37:12;;;;;;;5.53;3.00;;;;;;;16.15;61.76;102476.75;6279303;22;19999;-80
2022/11/30 06:39:37;;;;;;;5.47;2.80;;;;;;;16.17;61.89;102485.47;6253860;22;20010;-80
2022/11/30 06:42:03;;;;;;;6.30;2.97;;;;;;;16.17;61.81;102482.88;6282444;22;20444;-81
2022/11/30 06:44:28;;;;;;;6.75;3.13;;;;;;;16.17;61.97;102482.00;6261043;22;20007;-80
2022/11/30 06:46:53;;;;;;;5.85;3.10;;;;;;;16.18;61.88;102489.84;6287716;22;20019;-80
2022/11/30 06:49:19;;;;;;;5.38;3.10;;;;;;;16.17;61.81;102493.25;6252943;22;20003;-81
2022/11/30 06:51:44;;;;;;;5.22;2.88;;;;;;;16.19;62.03;102499.38;6252188;22;20008;-81
2022/11/30 06:54:10;;;;;;;5.38;2.90;;;;;;;16.19;61.88;102496.78;6260766;22;20011;-84
2022/11/30 06:56:36;;;;;;;5.53;2.78;;;;;;;16.20;61.94;102487.25;6287627;22;20424;-81
2022/11/30 06:59:01;;;;;;;10.43;3.38;;;;;;;16.29;62.53;102496.97;6284497;22;20004;-80
2022/11/30 07:01:26;;;;;;;7.95;4.28;;;;;;;16.42;62.75;102494.69;6268937;22;20020;-81
2022/11/30 07:03:52;;;;;;;12.10;4.38;;;;;;;16.50;62.67;102500.03;6253026;23;20035;-81
2022/11/30 07:06:17;;;;;;;14.05;4.47;;;;;;;16.51;62.55;102501.81;6251435;23;20008;-81
2022/11/30 07:08:43;;;;;;;8.77;3.90;;;;;;;16.54;62.57;102509.66;6252411;23;20028;-81
2022/11/30 07:11:11;;;;;;;8.82;4.10;;;;;;;16.55;62.54;102511.44;6251405;22;20088;-81
2022/11/30 07:13:36;;;;;;;7.43;3.97;;;;;;;16.58;62.62;102510.63;6255156;22;20008;-81
2022/11/30 07:16:04;;;;;;;8.82;4.13;;;;;;;16.58;62.75;102511.47;6266067;23;20004;-82
2022/11/30 07:18:29;;;;;;;10.68;3.97;;;;;;;16.60;62.65;102514.13;6253387;23;20004;-82
2022/11/30 07:20:59;;;;;;;10.15;3.72;;;;;;;16.56;62.22;102518.38;6227495;23;20314;-82
2022/11/30 07:26:08;;;;;;;;;;;;;;;16.55;62.42;102527.03;6256276;23;20022;-81
2022/11/30 07:28:42;;;;;;;7.13;3.80;;;;;;;16.53;62.64;102526.09;6254808;22;20263;-81
2022/11/30 07:31:21;;;;;;;9.43;4.20;;;;;;;16.53;62.26;102530.44;6255837;23;20008;-82
2022/11/30 07:33:48;;;;;;;8.35;3.38;;;;;;;16.50;62.52;102531.22;6250426;23;20058;-81
2022/11/30 07:36:15;;;;;;;7.88;4.00;;;;;;;16.52;62.46;102541.66;6255363;23;20011;-82
2022/11/30 07:38:41;;;;;;;9.00;4.25;;;;;;;16.51;62.13;102538.19;6264497;22;20000;-81
2022/11/30 07:41:07;;;;;;;7.28;3.83;;;;;;;16.51;62.21;102538.19;6268073;23;20091;-81
2022/11/30 07:43:32;;;;;;;9.63;4.25;;;;;;;16.53;62.40;102539.09;6267073;23;20004;-82
2022/11/30 07:45:58;;;;;;;7.30;3.80;;;;;;;16.54;62.39;102543.44;6268346;23;20018;-82
2022/11/30 07:48:24;;;;;;;7.45;3.65;;;;;;;16.57;62.20;102540.03;6266891;23;20340;-81
2022/11/30 07:50:49;;;;;;;7.63;3.80;;;;;;;16.59;62.13;102540.94;6253304;23;20031;-81
2022/11/30 07:53:15;;;;;;;5.60;3.65;;;;;;;16.60;62.12;102548.78;6231520;23;20012;-81
2022/11/30 07:55:41;;;;;;;6.57;3.58;;;;;;;16.61;62.24;102550.56;6254082;23;20011;-81
2022/11/30 07:58:06;;;;;;;5.88;3.28;;;;;;;16.63;62.09;102550.56;6253749;23;20027;-81
2022/11/30 08:00:32;;;;;;;8.02;3.72;;;;;;;16.63;61.88;102558.34;6254605;22;20416;-81
2022/11/30 08:02:57;;;;;;;5.57;3.33;;;;;;;16.61;62.34;102560.94;6226345;23;20460;-81
2022/11/30 08:05:23;;;;;;;6.75;3.55;;;;;;;16.61;62.07;102557.44;6252111;23;20014;-82
2022/11/30 08:07:52;;;;;;;5.63;3.13;;;;;;;16.58;62.47;102558.25;6226121;23;20008;-82
2022/11/30 08:10:22;;;;;;;5.38;3.42;;;;;;;16.57;62.18;102550.41;6250678;22;20062;-81
2022/11/30 08:12:48;;;;;;;6.50;3.35;;;;;;;16.55;62.36;102557.31;6251355;23;20458;-81
2022/11/30 08:15:14;;;;;;;6.28;3.40;;;;;;;16.55;62.31;102553.00;6251616;23;19992;-81
2022/11/30 08:17:40;;;;;;;6.85;3.50;;;;;;;16.54;62.07;102553.84;6249932;23;20000;-82
2022/11/30 08:20:07;;;;;;;7.65;3.92;;;;;;;16.54;62.25;102561.63;6251450;23;20007;-81
2022/11/30 08:22:34;;;;;;;5.97;3.60;;;;;;;16.56;62.21;102566.88;6227025;23;20020;-83
2022/11/30 08:25:01;;;;;;;6.63;3.72;;;;;;;16.54;62.21;102571.16;6254741;23;19996;-82
2022/11/30 08:27:26;;;;;;;5.15;3.40;;;;;;;16.55;62.09;102580.69;6230475;23;20012;-82
2022/11/30 08:29:52;;;;;;;4.95;3.42;;;;;;;16.55;62.09;102578.09;6252692;23;20103;-81
2022/11/30 08:32:26;;;;;;;5.68;3.50;;;;;;;16.54;62.15;102586.75;6266427;22;19992;-88
2022/11/30 08:34:51;;;;;;;5.32;3.30;;;;;;;16.54;62.30;102582.44;6271410;22;20008;-85
2022/11/30 08:37:17;;;;;;;5.25;3.30;;;;;;;16.52;62.20;102576.31;6271090;22;20012;-86
2022/11/30 08:39:42;;;;;;;5.13;3.33;;;;;;;16.54;62.21;102585.03;6232921;23;20100;-82
2022/11/30 08:42:08;;;;;;;6.90;3.38;;;;;;;16.53;62.21;102585.88;6232543;23;20016;-82
2022/11/30 08:44:33;;;;;;;5.70;3.53;;;;;;;16.53;62.16;102593.69;6254285;23;20008;-81
2022/11/30 08:46:58;;;;;;;5.28;3.17;;;;;;;16.53;62.14;102591.09;6228867;23;20035;-81
2022/11/30 08:49:25;;;;;;;5.43;3.30;;;;;;;16.53;61.77;102598.00;6256143;23;20034;-84
2022/11/30 08:51:54;;;;;;;5.35;3.30;;;;;;;16.52;61.99;102591.03;6270832;23;20084;-84
2022/11/30 08:54:20;;;;;;;7.63;3.60;;;;;;;16.52;62.01;102602.31;6269433;22;20007;-86
2022/11/30 08:56:48;;;;;;;6.00;3.50;;;;;;;16.54;61.89;102607.53;6271060;22;20031;-84
2022/11/30 08:59:14;;;;;;;5.78;3.53;;;;;;;16.52;62.12;102607.50;6224418;23;20004;-82
2022/11/30 09:01:41;;;;;;;4.45;3.45;;;;;;;16.52;61.88;102611.81;6253173;23;20024;-82
2022/11/30 09:04:06;;;;;;;4.70;3.30;;;;;;;16.51;61.75;102610.97;6252961;23;20011;-82
2022/11/30 09:06:32;;;;;;;4.93;3.40;;;;;;;16.51;61.86;102618.75;6252512;23;20054;-81
2022/11/30 09:08:58;;;;;;;4.53;3.38;;;;;;;16.51;61.86;102616.16;6227868;23;20138;-81
2022/11/30 09:11:26;;;;;;;4.32;3.00;;;;;;;16.52;61.91;102622.22;6252647;22;20344;-81
2022/11/30 09:13:53;;;;;;;5.10;3.65;;;;;;;16.52;61.81;102619.63;6252762;23;20024;-81
2022/11/30 09:16:20;;;;;;;4.10;3.08;;;;;;;16.53;61.94;102627.47;6227837;23;20043;-82
2022/11/30 09:18:47;;;;;;;4.72;3.33;;;;;;;16.52;61.88;102617.03;6253271;22;20004;-81
2022/11/30 09:21:15;;;;;;;5.72;3.65;;;;;;;16.52;62.16;102628.28;6262627;22;20004;-85
2022/11/30 09:23:41;;;;;;;5.65;3.45;;;;;;;16.51;61.70;102629.16;6271708;22;19988;-87
2022/11/30 09:26:11;;;;;;;6.15;3.60;;;;;;;16.51;61.89;102630.88;6270139;22;20004;-85
2022/11/30 09:28:42;;;;;;;5.15;3.50;;;;;;;16.50;61.95;102629.97;6246448;23;19992;-85
2022/11/30 09:31:14;;;;;;;4.15;3.00;;;;;;;16.53;61.84;102637.00;6221941;23;20019;-83
2022/11/30 09:33:40;;;;;;;3.70;2.80;;;;;;;16.49;61.74;102630.84;6272345;22;19996;-86
2022/11/30 09:36:08;;;;;;;5.28;3.25;;;;;;;16.51;61.75;102639.53;6245016;23;19988;-85
2022/11/30 09:38:34;;;;;;;4.57;3.40;;;;;;;16.50;61.88;102642.09;6270692;23;19995;-85
2022/11/30 09:41:13;;;;;;;4.22;3.28;;;;;;;16.52;61.68;102643.00;6242970;23;20008;-82
2022/11/30 09:44:05;;;;;;;3.85;3.30;;;;;;;16.51;61.85;102638.69;6268182;22;20064;-83
2022/11/30 09:46:45;;;;;;;4.47;3.33;;;;;;;16.51;61.55;102639.53;6253552;22;20031;-83
2022/11/30 09:49:21;;;;;;;5.95;3.63;;;;;;;16.51;61.38;102641.28;6250813;22;20435;-83
2022/11/30 09:51:51;;;;;;;5.95;3.60;;;;;;;16.53;61.62;102652.59;6259751;23;20000;-86
2022/11/30 09:54:41;;;;;;;5.13;3.50;;;;;;;16.50;61.64;102642.97;6270768;23;20014;-86
2022/11/30 09:57:28;;;;;;;6.07;3.80;;;;;;;16.53;61.57;102648.25;6269263;22;20015;-85
2022/11/30 10:00:16;;;;;;;4.82;3.42;;;;;;;16.54;61.33;102646.53;6271927;22;20023;-85
2022/11/30 10:02:44;;;;;;;5.25;3.50;;;;;;;16.51;61.38;102644.75;6269289;23;20011;-86
2022/11/30 10:05:27;;;;;;;5.38;3.30;;;;;;;16.54;61.58;102650.00;6270758;23;20012;-85
2022/11/30 10:08:09;;;;;;;6.80;3.57;;;;;;;16.54;61.31;102644.81;6249544;23;20027;-85
2022/11/30 10:11:24;;;;;;;3.80;3.10;;;;;;;16.54;61.53;102644.81;6274979;22;20258;-84
2022/11/30 10:14:21;;;;;;;4.60;3.40;;;;;;;16.56;61.57;102642.25;6195343;22;20017;-83
2022/11/30 10:16:54;;;;;;;4.53;3.03;;;;;;;16.56;61.59;102642.25;6275530;22;20000;-87
2022/11/30 10:19:42;;;;;;;4.75;3.10;;;;;;;16.57;61.16;102644.00;6274512;22;20008;-86
2022/11/30 10:22:28;;;;;;;5.18;3.80;;;;;;;16.58;61.52;102640.56;6274616;22;20012;-83
2022/11/30 10:25:29;;;;;;;6.00;3.17;;;;;;;16.58;61.52;102636.25;6265505;23;20007;-86
2022/11/30 10:28:22;;;;;;;4.75;3.40;;;;;;;16.59;61.22;102638.00;6273836;23;20016;-86
2022/11/30 10:30:48;;;;;;;6.75;3.53;;;;;;;16.59;61.33;102638.00;6274236;23;20012;-82
2022/11/30 10:33:56;;;;;;;4.13;3.25;;;;;;;16.58;61.16;102640.56;6273216;22;20008;-86
2022/11/30 10:36:37;;;;;;;4.43;3.50;;;;;;;16.59;61.36;102638.00;6273754;22;19992;-84
2022/11/30 10:39:14;;;;;;;4.88;3.35;;;;;;;16.58;61.11;102631.03;6274581;22;20044;-85
2022/11/30 10:41:47;;;;;;;6.60;3.85;;;;;;;16.56;61.52;102627.53;6272542;22;19988;-84
2022/11/30 10:44:14;;;;;;;;;;;;;;;16.58;61.46;102630.16;6271583;22;20034;-85
2022/11/30 10:46:52;;;;;;;4.47;3.30;;;;;;;16.56;61.38;102630.13;6272827;22;19887;-85
2022/11/30 10:49:22;;;;;;;4.35;3.28;;;;;;;16.58;61.39;102622.38;6274401;22;20004;-85
2022/11/30 10:51:56;;;;;;;5.63;3.10;;;;;;;16.56;61.32;102611.94;6274194;22;19995;-86
2022/11/30 10:54:22;;;;;;;5.00;3.60;;;;;;;16.56;61.43;102618.84;6274419;22;20032;-87
2022/11/30 10:56:48;;;;;;;4.20;3.40;;;;;;;16.58;61.33;102630.16;6274365;22;20012;-84
2022/11/30 10:59:32;;;;;;;5.32;3.45;;;;;;;16.58;61.37;102620.66;6274408;22;20039;-86
2022/11/30 11:02:00;;;;;;;4.53;3.40;;;;;;;16.57;61.24;102615.41;6274484;22;20023;-84
2022/11/30 11:04:26;;;;;;;4.93;3.35;;;;;;;16.60;61.10;102618.09;6274112;22;20020;-84
2022/11/30 11:06:54;;;;;;;4.78;3.35;;;;;;;16.60;61.37;102612.88;6217377;23;20019;-84
2022/11/30 11:09:26;;;;;;;3.67;2.90;;;;;;;16.60;61.34;102615.50;6273710;22;19984;-84
2022/11/30 11:12:12;;;;;;;5.25;3.30;;;;;;;16.58;61.23;102614.56;6275300;22;19988;-84
2022/11/30 11:14:37;;;;;;;4.45;3.63;;;;;;;16.59;61.29;102617.22;6273018;22;19995;-81
2022/11/30 11:17:16;;;;;;;4.32;3.20;;;;;;;16.60;61.14;102613.75;6269520;22;20016;-81
2022/11/30 11:19:43;;;;;;;3.58;2.90;;;;;;;16.59;61.21;102617.22;6256667;23;20008;-81
2022/11/30 11:22:23;;;;;;;4.90;3.50;;;;;;;16.60;61.11;102616.34;6256647;23;20000;-81
2022/11/30 11:25:11;;;;;;;4.15;3.50;;;;;;;16.60;61.13;102616.34;6266888;22;20026;-84
2022/11/30 11:27:40;;;;;;;4.78;3.47;;;;;;;16.59;61.38;102613.72;6273321;22;20043;-84
2022/11/30 11:30:31;;;;;;;4.20;3.05;;;;;;;16.61;61.11;102620.72;6273949;22;20008;-86
2022/11/30 11:33:29;;;;;;;4.93;3.42;;;;;;;16.61;61.17;102622.44;6271192;22;20008;-86
2022/11/30 11:36:35;;;;;;;4.38;3.10;;;;;;;16.61;61.22;102620.72;6271693;23;20016;-85
2022/11/30 11:39:02;;;;;;;3.78;3.35;;;;;;;16.62;60.91;102625.06;6270947;22;20012;-84
2022/11/30 11:41:33;;;;;;;6.00;3.35;;;;;;;16.61;61.03;102627.63;6271740;22;19988;-84
2022/11/30 11:44:21;;;;;;;6.50;3.25;;;;;;;16.61;61.13;102625.94;6272286;23;20002;-84
2022/11/30 11:47:03;;;;;;;3.70;2.90;;;;;;;16.58;61.26;102624.97;6268279;23;20000;-86
2022/11/30 11:49:33;;;;;;;4.68;3.33;;;;;;;16.60;61.14;102620.69;6262873;22;20015;-82
2022/11/30 11:52:11;;;;;;;4.85;3.03;;;;;;;16.61;61.29;102625.03;6270460;23;19998;-86
2022/11/30 11:54:46;;;;;;;4.78;3.60;;;;;;;16.59;61.00;102619.81;6258440;23;20070;-81
2022/11/30 11:57:14;;;;;;;4.40;2.85;;;;;;;16.61;61.13;102618.13;6248719;23;20085;-81
2022/11/30 11:59:45;;;;;;;4.55;3.28;;;;;;;16.62;60.80;102613.81;6252643;23;20007;-80
2022/11/30 12:02:25;;;;;;;4.60;3.13;;;;;;;16.64;61.03;102620.78;6252787;22;20436;-81
2022/11/30 12:04:55;;;;;;;6.03;3.50;;;;;;;16.62;61.03;102619.88;6227217;23;20012;-81
2022/11/30 12:07:48;;;;;;;5.00;3.20;;;;;;;16.65;61.06;102616.47;6225240;23;20012;-81
2022/11/30 12:10:20;;;;;;;3.70;3.07;;;;;;;16.64;60.85;102618.19;6225886;23;20007;-82
2022/11/30 12:12:45;;;;;;;3.60;3.17;;;;;;;16.65;61.12;102621.66;6225086;23;20782;-81
2022/11/30 12:15:11;;;;;;;6.07;3.30;;;;;;;16.66;61.09;102623.44;6200047;23;20034;-81
2022/11/30 12:18:00;;;;;;;4.70;3.67;;;;;;;16.66;61.12;102620.84;6200711;23;20004;-82
2022/11/30 12:20:56;;;;;;;4.10;3.35;;;;;;;16.65;60.86;102616.47;6225582;23;20486;-81
2022/11/30 12:23:37;;;;;;;4.53;3.40;;;;;;;16.64;61.03;102618.19;6224731;23;20014;-81
2022/11/30 12:26:28;;;;;;;4.80;3.63;;;;;;;16.64;61.03;102623.38;6225977;23;20014;-81
2022/11/30 12:29:22;;;;;;;4.60;3.20;;;;;;;16.65;60.97;102619.06;6223969;23;20011;-81
2022/11/30 12:32:06;;;;;;;4.97;3.42;;;;;;;16.64;61.17;102626.00;6166813;23;20329;-80
2022/11/30 12:35:03;;;;;;;4.75;3.65;;;;;;;16.64;61.06;102622.53;6225070;23;20055;-81
2022/11/30 12:37:53;;;;;;;4.03;3.20;;;;;;;16.63;60.94;102623.34;6224221;23;20054;-81
2022/11/30 12:40:27;;;;;;;4.65;3.30;;;;;;;16.63;60.92;102624.22;6251769;23;20001;-82
2022/11/30 12:43:14;;;;;;;5.57;3.55;;;;;;;16.62;60.87;102619.88;6251101;23;20031;-81